AKST,Max TemperatureF,Mean TemperatureF,Min TemperatureF,Max Dew PointF,MeanDew PointF,Min DewpointF,Max Humidity, Mean Humidity, Min Humidity, Max Sea Level PressureIn, Mean Sea Level PressureIn, Min Sea Level PressureIn, Max VisibilityMiles, Mean VisibilityMiles, Min VisibilityMiles, Max Wind SpeedMPH, Mean Wind SpeedMPH, Max Gust SpeedMPH,PrecipitationIn, CloudCover, Events, WindDirDegrees
2011-11-1,45,41,37,39,37,32,89,78,67,29.83,29.53,29.32,10,8,3,39,32,53,0.42,7,Rain,205
2011-11-2,41,34,27,34,18,2,93,57,34,30.19,29.82,29.53,10,10,10,21,10,30,0.00,5,Rain,27
2011-11-3,30,27,24,14,8,3,65,45,36,30.29,30.19,29.96,10,10,10,17,9,25,0.00,3,,25
2011-11-4,30,28,25,29,25,12,96,86,58,29.93,29.60,29.49,10,5,1,7,1,,0.03,8,Snow,35
2011-11-5,36,32,28,31,29,26,96,90,72,29.78,29.64,29.50,10,8,2,4,0,,0.02,8,Snow,30
2011-11-6,42,37,32,38,34,30,100,87,76,29.78,29.61,29.43,10,8,2,36,12,48,0.05,8,Rain-Snow,207
2011-11-7,41,40,39,36,34,31,87,78,67,29.75,29.60,29.53,10,10,10,33,26,43,0.00,5,,207
2011-11-8,39,38,36,32,30,27,86,74,65,30.11,30.02,29.78,10,10,10,34,13,43,0.00,7,,205
2011-11-9,39,33,27,29,27,24,93,76,53,30.07,29.86,29.75,10,10,9,13,2,,0.00,4,,16
2011-11-10,37,32,28,34,32,25,100,92,80,29.75,29.50,29.30,10,7,2,26,5,33,0.22,8,Rain-Snow,119
2011-11-11,34,30,26,32,24,20,100,81,61,29.73,29.55,29.26,10,8,1,5,1,,0.08,4,Snow,18
2011-11-12,37,32,26,34,27,25,100,93,86,29.24,28.89,28.75,10,4,1,14,1,22,0.20,8,Snow,146
2011-11-13,37,34,30,34,30,19,100,85,61,29.53,29.23,28.98,10,5,0,26,8,26,0.22,8,Fog-Rain-Snow,48
2011-11-14,30,24,19,22,19,16,93,78,58,29.73,29.67,29.55,10,6,0,12,5,18,0.04,7,Fog-Snow,10
2011-11-15,26,21,16,22,20,15,96,86,75,29.86,29.77,29.68,10,5,1,9,2,,0.04,7,Snow,16
2011-11-16,28,24,19,19,14,3,93,71,48,29.70,29.56,29.41,10,6,1,23,7,33,0.10,8,Snow,18
2011-11-17,19,16,12,2,-2,-5,50,44,40,30.26,30.07,29.70,10,10,10,16,13,26,0.00,3,,20
2011-11-18,12,11,10,-5,-6,-7,49,46,42,30.25,30.15,30.09,10,10,10,18,12,31,0.00,4,,21
2011-11-19,10,8,7,-6,-8,-11,48,45,42,30.21,30.14,30.00,10,10,10,25,18,36,0.00,0,,24
2011-11-20,10,8,5,-6,-9,-11,51,48,45,29.97,29.63,29.25,10,10,9,28,17,41,0.00,5,,33
2011-11-21,21,16,10,15,6,-6,81,70,47,29.21,29.09,29.00,10,4,1,25,14,39,0.00,8,Snow,25
2011-11-22,27,24,21,21,15,9,86,66,51,29.10,29.02,28.92,10,7,2,28,18,44,0.00,7,Snow,30
2011-11-23,28,26,24,23,17,12,92,68,49,29.07,29.03,28.94,10,7,1,16,6,29,0.00,8,Snow,16
2011-11-24,26,18,10,25,17,8,100,81,58,29.50,29.15,29.04,10,7,2,9,1,,0.01,6,Snow,27
2011-11-25,26,18,10,21,18,8,88,81,65,29.76,29.69,29.54,10,6,1,17,4,26,0.00,8,Snow,34
2011-11-26,28,24,19,18,13,9,74,60,53,29.59,29.51,29.45,10,10,10,13,7,24,0.00,4,,38
2011-11-27,26,22,17,25,18,10,96,87,65,29.81,29.74,29.58,10,4,1,6,1,,0.05,7,Snow,50
2011-11-28,39,32,26,34,28,24,100,88,73,29.79,29.55,29.48,10,5,1,31,6,41,0.21,7,Snow,203
2011-11-29,39,36,32,32,30,28,92,81,73,30.38,30.14,29.81,10,10,7,25,14,33,0.00,7,,180
2011-11-30,42,38,35,36,33,32,93,82,67,30.39,30.19,29.84,10,8,2,40,26,50,0.40,8,Rain-Snow,209